Time;durP1;ratioP1;P1;durP2;ratioP2;P2;SDS_P1;SDS_P2;PMS_P1;PMS_P2;Temp;Humidity;BMP_temperature;BMP_pressure;BME280_temperature;BME280_humidity;BME280_pressure;Samples;Min_cycle;Max_cycle;Signal;HPM_P1;HPM_P2
2021/12/01 00:01:32;;;;;;;46.17;25.33;;;;;;;;;;5090189;28;20381;-29
2021/12/01 00:03:58;;;;;;;40.10;21.73;;;;;;;;;;5092077;28;20024;-29
2021/12/01 00:06:24;;;;;;;38.25;21.50;;;;;;;;;;5092034;28;20046;-29
2021/12/01 00:08:50;;;;;;;39.75;22.10;;;;;;;;;;5092385;28;20032;-30
2021/12/01 00:11:16;;;;;;;37.50;21.70;;;;;;;;;;5091503;28;20533;-29
2021/12/01 00:13:42;;;;;;;41.30;23.00;;;;;;;;;;5092554;28;20078;-29
2021/12/01 00:16:08;;;;;;;35.80;21.50;;;;;;;;;;5092329;28;20074;-29
2021/12/01 00:18:35;;;;;;;39.40;22.02;;;;;;;;;;5092369;28;20080;-29
2021/12/01 00:21:01;;;;;;;37.92;23.20;;;;;;;;;;5091681;28;20489;-29
2021/12/01 00:23:27;;;;;;;37.10;21.98;;;;;;;;;;5091088;28;20043;-30
2021/12/01 00:25:53;;;;;;;39.42;22.55;;;;;;;;;;5092277;28;20036;-29
2021/12/01 00:28:19;;;;;;;39.97;23.77;;;;;;;;;;5092423;28;20040;-29
2021/12/01 00:30:46;;;;;;;41.28;23.73;;;;;;;;;;5090401;28;20046;-29
2021/12/01 00:33:13;;;;;;;40.83;25.05;;;;;;;;;;5091895;28;20036;-28
2021/12/01 00:35:39;;;;;;;42.10;24.63;;;;;;;;;;5090661;28;20466;-29
2021/12/01 00:38:06;;;;;;;39.38;24.13;;;;;;;;;;5092113;28;20493;-28
2021/12/01 00:40:32;;;;;;;42.05;27.35;;;;;;;;;;5091062;28;20045;-29
2021/12/01 00:42:59;;;;;;;41.72;26.80;;;;;;;;;;5094918;28;20036;-29
2021/12/01 00:45:29;;;;;;;47.88;27.85;;;;;;;;;;5088919;28;20055;-29
2021/12/01 00:47:55;;;;;;;41.95;27.35;;;;;;;;;;5094590;28;20092;-29
2021/12/01 00:50:37;;;;;;;47.58;29.52;;;;;;;;;;5094156;28;20051;-28
2021/12/01 00:53:07;;;;;;;47.50;29.55;;;;;;;;;;5087350;28;20165;-29
2021/12/01 00:55:33;;;;;;;44.97;27.52;;;;;;;;;;5095004;28;20048;-29
2021/12/01 00:58:00;;;;;;;48.28;30.70;;;;;;;;;;5095457;28;20044;-29
2021/12/01 01:00:28;;;;;;;45.83;29.45;;;;;;;;;;5094553;28;20032;-29
2021/12/01 01:02:58;;;;;;;42.90;27.48;;;;;;;;;;5072169;28;20197;-29
2021/12/01 01:05:24;;;;;;;41.67;26.88;;;;;;;;;;5095433;28;20435;-28
2021/12/01 01:07:51;;;;;;;42.72;28.85;;;;;;;;;;5093188;28;20036;-29
2021/12/01 01:18:19;;;;;;;47.65;27.55;;;;;;;;;;5089463;28;20040;-28
2021/12/01 01:20:45;;;;;;;45.80;26.05;;;;;;;;;;5094687;28;20098;-29
2021/12/01 01:23:11;;;;;;;42.38;26.20;;;;;;;;;;5090905;28;20034;-29
2021/12/01 01:25:37;;;;;;;43.58;25.95;;;;;;;;;;5072837;28;20048;-29
2021/12/01 01:28:03;;;;;;;40.08;24.30;;;;;;;;;;5095322;28;20032;-29
2021/12/01 01:30:30;;;;;;;41.85;24.88;;;;;;;;;;5097687;28;20047;-29
2021/12/01 01:32:56;;;;;;;37.10;23.13;;;;;;;;;;5097869;28;20063;-30
2021/12/01 01:35:22;;;;;;;39.35;21.98;;;;;;;;;;5097660;28;20071;-30
2021/12/01 01:37:48;;;;;;;32.58;21.05;;;;;;;;;;5096286;28;20036;-30
2021/12/01 01:40:14;;;;;;;36.47;19.75;;;;;;;;;;5101477;28;20036;-30
2021/12/01 01:42:40;;;;;;;38.15;20.15;;;;;;;;;;5099900;28;20043;-30
2021/12/01 01:45:07;;;;;;;31.80;18.20;;;;;;;;;;5096703;28;20032;-30
2021/12/01 01:47:33;;;;;;;32.80;19.08;;;;;;;;;;5096611;28;20036;-30
2021/12/01 01:52:29;;;;;;;26.83;16.42;;;;;;;;;;5096274;28;20044;-30
2021/12/01 01:54:55;;;;;;;27.52;16.42;;;;;;;;;;5098104;28;20437;-30
2021/12/01 01:57:22;;;;;;;25.40;16.08;;;;;;;;;;5097610;28;20089;-29
2021/12/01 01:59:48;;;;;;;27.95;16.67;;;;;;;;;;5095586;28;20519;-30
2021/12/01 02:02:23;;;;;;;27.92;16.13;;;;;;;;;;5097433;28;20117;-29
2021/12/01 02:04:49;;;;;;;23.10;14.90;;;;;;;;;;5096361;28;20036;-29
2021/12/01 02:07:15;;;;;;;24.80;14.73;;;;;;;;;;5096039;28;20050;-29
2021/12/01 02:09:41;;;;;;;26.25;14.98;;;;;;;;;;5095366;28;20070;-30
2021/12/01 02:12:07;;;;;;;23.25;15.02;;;;;;;;;;5096143;28;20042;-29
2021/12/01 02:14:33;;;;;;;26.52;15.45;;;;;;;;;;5099503;28;20043;-29
2021/12/01 02:16:59;;;;;;;28.35;15.65;;;;;;;;;;5095915;28;20054;-29
2021/12/01 02:19:25;;;;;;;25.00;14.48;;;;;;;;;;5094806;28;20043;-29
2021/12/01 02:21:51;;;;;;;26.27;14.82;;;;;;;;;;5093569;28;20100;-29
2021/12/01 02:24:20;;;;;;;23.77;14.00;;;;;;;;;;5088834;28;20039;-29
2021/12/01 02:26:49;;;;;;;22.08;13.80;;;;;;;;;;5093726;28;20044;-30
2021/12/01 02:29:25;;;;;;;23.13;13.15;;;;;;;;;;5087687;28;20136;-30
2021/12/01 02:31:52;;;;;;;20.52;12.20;;;;;;;;;;5091511;28;20374;-30
2021/12/01 02:34:19;;;;;;;20.08;12.38;;;;;;;;;;5087878;28;20485;-29
2021/12/01 02:36:47;;;;;;;21.15;11.70;;;;;;;;;;5093376;28;20515;-29
2021/12/01 02:39:15;;;;;;;20.27;11.65;;;;;;;;;;5083592;28;20036;-29
2021/12/01 02:41:42;;;;;;;20.88;12.00;;;;;;;;;;5092755;28;20451;-29
2021/12/01 02:44:11;;;;;;;19.02;11.90;;;;;;;;;;5092400;28;20094;-30
2021/12/01 02:46:37;;;;;;;17.55;11.77;;;;;;;;;;5092078;28;20040;-30
2021/12/01 02:49:03;;;;;;;17.65;10.15;;;;;;;;;;5091586;28;20163;-30
2021/12/01 02:51:32;;;;;;;16.60;10.80;;;;;;;;;;5092423;28;20495;-29
2021/12/01 02:56:30;;;;;;;14.65;9.43;;;;;;;;;;5118303;22;20513;-25
2021/12/01 02:58:57;;;;;;;14.55;9.90;;;;;;;;;;5102267;28;20076;-28
2021/12/01 03:01:23;;;;;;;13.48;8.45;;;;;;;;;;5087230;28;20573;-28
2021/12/01 03:03:50;;;;;;;11.02;7.15;;;;;;;;;;5075989;28;20040;-27
2021/12/01 03:06:17;;;;;;;10.98;6.93;;;;;;;;;;5070964;28;20040;-28
2021/12/01 03:08:45;;;;;;;7.50;5.60;;;;;;;;;;5076916;28;20420;-28
2021/12/01 03:11:12;;;;;;;7.22;4.50;;;;;;;;;;5072865;28;20041;-28
2021/12/01 03:13:39;;;;;;;7.85;5.20;;;;;;;;;;5078546;28;20322;-28
2021/12/01 03:16:05;;;;;;;6.22;4.60;;;;;;;;;;5064103;28;20144;-28
2021/12/01 03:18:32;;;;;;;7.25;4.80;;;;;;;;;;5062606;28;20048;-29
2021/12/01 03:20:58;;;;;;;6.53;4.72;;;;;;;;;;5067642;28;20040;-29
2021/12/01 03:23:25;;;;;;;6.05;4.38;;;;;;;;;;5057533;28;20076;-27
2021/12/01 03:25:51;;;;;;;6.43;4.57;;;;;;;;;;5058139;28;20044;-31
2021/12/01 03:28:18;;;;;;;5.57;4.43;;;;;;;;;;5047677;28;20071;-29
2021/12/01 03:30:44;;;;;;;6.57;4.32;;;;;;;;;;5044626;28;20413;-29
2021/12/01 03:33:12;;;;;;;6.38;4.50;;;;;;;;;;5066944;28;20048;-26
2021/12/01 03:35:39;;;;;;;8.95;5.47;;;;;;;;;;5073123;28;20127;-26
2021/12/01 03:38:06;;;;;;;6.82;4.97;;;;;;;;;;5073441;28;20047;-26
2021/12/01 03:40:38;;;;;;;6.68;4.97;;;;;;;;;;5072401;28;20428;-25
2021/12/01 03:43:04;;;;;;;5.35;4.13;;;;;;;;;;5070597;28;20137;-26
2021/12/01 03:45:30;;;;;;;6.97;4.38;;;;;;;;;;5070807;28;20040;-26
2021/12/01 03:48:02;;;;;;;7.82;4.95;;;;;;;;;;5070881;28;20043;-27
2021/12/01 03:50:28;;;;;;;8.05;5.18;;;;;;;;;;5070047;28;20059;-26
2021/12/01 03:52:54;;;;;;;8.80;5.97;;;;;;;;;;5070331;28;20044;-26
2021/12/01 03:55:20;;;;;;;7.75;5.40;;;;;;;;;;5070679;28;20097;-26
2021/12/01 03:57:46;;;;;;;9.38;6.03;;;;;;;;;;5070288;28;20047;-27
2021/12/01 04:00:13;;;;;;;9.13;5.93;;;;;;;;;;5070354;28;20163;-26
2021/12/01 04:02:40;;;;;;;8.35;6.30;;;;;;;;;;5052069;28;20071;-27
2021/12/01 04:05:06;;;;;;;5.93;5.30;;;;;;;;;;5070614;28;20043;-26
2021/12/01 04:07:32;;;;;;;6.40;5.68;;;;;;;;;;5070289;28;20043;-26
2021/12/01 04:09:58;;;;;;;6.82;5.18;;;;;;;;;;5070484;28;20044;-26
2021/12/01 04:12:25;;;;;;;5.93;4.95;;;;;;;;;;5070464;28;20083;-26
2021/12/01 04:14:54;;;;;;;6.35;5.07;;;;;;;;;;5070262;28;20330;-28
2021/12/01 04:17:20;;;;;;;5.82;5.20;;;;;;;;;;5060530;28;20040;-28
2021/12/01 04:19:46;;;;;;;5.60;4.53;;;;;;;;;;5073894;28;20556;-30
2021/12/01 04:22:12;;;;;;;4.95;4.25;;;;;;;;;;5051610;28;20051;-29
2021/12/01 04:24:38;;;;;;;6.40;5.35;;;;;;;;;;5059656;28;20033;-28
2021/12/01 04:27:04;;;;;;;7.32;4.78;;;;;;;;;;5075470;28;20037;-28
2021/12/01 04:29:30;;;;;;;6.55;5.53;;;;;;;;;;5064548;28;20037;-28
2021/12/01 04:31:56;;;;;;;5.10;4.32;;;;;;;;;;5062940;28;20053;-28
2021/12/01 04:34:22;;;;;;;7.32;5.30;;;;;;;;;;5062860;28;20148;-28
2021/12/01 04:36:50;;;;;;;7.32;5.30;;;;;;;;;;5067879;28;20044;-28
2021/12/01 04:39:16;;;;;;;4.25;3.72;;;;;;;;;;5073784;28;20048;-28
2021/12/01 04:41:51;;;;;;;3.88;3.33;;;;;;;;;;5075594;28;20076;-27
2021/12/01 04:44:19;;;;;;;4.55;3.92;;;;;;;;;;5070258;28;20041;-28
2021/12/01 04:46:46;;;;;;;3.42;3.13;;;;;;;;;;5063691;28;20069;-27
2021/12/01 04:49:14;;;;;;;3.45;3.15;;;;;;;;;;5062996;28;20411;-28
2021/12/01 04:51:42;;;;;;;4.00;3.38;;;;;;;;;;5060493;28;20052;-27
2021/12/01 04:54:08;;;;;;;3.28;2.97;;;;;;;;;;5068554;28;20630;-27
2021/12/01 04:56:36;;;;;;;5.18;2.72;;;;;;;;;;5062894;28;20041;-28
2021/12/01 04:59:02;;;;;;;3.15;2.85;;;;;;;;;;5039679;28;20040;-28
2021/12/01 05:01:28;;;;;;;3.50;2.50;;;;;;;;;;5051130;28;20056;-28
2021/12/01 05:03:54;;;;;;;3.55;3.03;;;;;;;;;;5070188;28;20119;-29
2021/12/01 05:06:20;;;;;;;3.25;2.53;;;;;;;;;;5065455;28;20454;-28
2021/12/01 05:08:46;;;;;;;4.07;2.90;;;;;;;;;;5064530;28;20032;-27
2021/12/01 05:11:12;;;;;;;3.72;2.88;;;;;;;;;;5094900;22;20040;31
2021/12/01 05:16:06;;;;;;;3.70;2.67;;;;;;;;;;5131756;22;20043;-31
2021/12/01 05:18:32;;;;;;;3.33;2.85;;;;;;;;;;5134753;27;20043;-32
2021/12/01 05:20:58;;;;;;;4.70;3.30;;;;;;;;;;5134121;27;20035;-31
2021/12/01 05:23:24;;;;;;;3.30;3.00;;;;;;;;;;5134442;27;20480;-30
2021/12/01 05:25:50;;;;;;;3.58;3.15;;;;;;;;;;5134423;27;20035;-33
2021/12/01 05:28:16;;;;;;;3.47;2.70;;;;;;;;;;5134072;27;20088;-30
2021/12/01 05:30:43;;;;;;;3.88;3.35;;;;;;;;;;5134461;27;20046;-30
2021/12/01 05:33:10;;;;;;;3.35;3.05;;;;;;;;;;5134470;27;20039;-31
2021/12/01 05:35:37;;;;;;;3.13;2.63;;;;;;;;;;5133082;27;20096;-33
2021/12/01 05:38:04;;;;;;;2.88;2.60;;;;;;;;;;5134488;27;20084;-30
2021/12/01 05:40:30;;;;;;;3.75;2.42;;;;;;;;;;5133898;27;20039;-30
2021/12/01 05:42:56;;;;;;;3.45;3.15;;;;;;;;;;5134020;27;20522;-30
2021/12/01 05:45:22;;;;;;;3.42;2.83;;;;;;;;;;5133860;27;20085;-30
2021/12/01 05:47:48;;;;;;;5.32;3.30;;;;;;;;;;5134273;27;20511;-28
2021/12/01 05:50:15;;;;;;;4.30;3.33;;;;;;;;;;5133784;27;20057;-30
2021/12/01 05:52:42;;;;;;;3.33;2.95;;;;;;;;;;5133957;27;20035;-31
2021/12/01 05:55:08;;;;;;;3.90;3.25;;;;;;;;;;5133808;27;20082;-31
2021/12/01 05:57:34;;;;;;;4.07;3.63;;;;;;;;;;5133867;27;20406;-29
2021/12/01 06:00:01;;;;;;;3.05;2.53;;;;;;;;;;5133696;27;20472;-31
2021/12/01 06:02:27;;;;;;;4.85;2.72;;;;;;;;;;5133939;27;20047;-31
2021/12/01 06:04:53;;;;;;;3.58;3.28;;;;;;;;;;5133781;27;20490;-32
2021/12/01 06:07:20;;;;;;;3.28;2.97;;;;;;;;;;5133887;27;20046;-31
2021/12/01 06:09:46;;;;;;;4.00;3.60;;;;;;;;;;5132978;27;20042;-32
2021/12/01 06:12:13;;;;;;;3.35;2.40;;;;;;;;;;5133405;27;20040;-31
2021/12/01 06:14:41;;;;;;;3.78;2.95;;;;;;;;;;5133290;27;20038;-31
2021/12/01 06:17:08;;;;;;;3.45;2.88;;;;;;;;;;5132574;27;20064;-31
2021/12/01 06:19:34;;;;;;;4.25;2.97;;;;;;;;;;5133761;27;20046;-31
2021/12/01 06:22:01;;;;;;;5.28;3.38;;;;;;;;;;5133532;27;20074;-33
2021/12/01 06:24:27;;;;;;;3.80;3.50;;;;;;;;;;5131668;27;20081;-33
2021/12/01 06:26:53;;;;;;;4.97;3.78;;;;;;;;;;5133269;27;20053;-33
2021/12/01 06:29:19;;;;;;;4.20;3.20;;;;;;;;;;5133491;27;20113;-35
2021/12/01 06:31:45;;;;;;;5.28;3.50;;;;;;;;;;5133243;27;20566;-32
2021/12/01 06:34:11;;;;;;;2.88;2.58;;;;;;;;;;5133223;27;20050;-31
2021/12/01 06:36:37;;;;;;;4.20;3.45;;;;;;;;;;5133778;27;20043;-31
2021/12/01 06:39:05;;;;;;;3.80;3.40;;;;;;;;;;5132142;27;20051;-32
2021/12/01 06:41:31;;;;;;;5.65;5.05;;;;;;;;;;5133201;27;20475;-32
2021/12/01 06:43:57;;;;;;;3.92;3.53;;;;;;;;;;5133439;27;20043;-30
2021/12/01 06:46:24;;;;;;;3.90;3.40;;;;;;;;;;5133234;27;20041;-34
2021/12/01 06:48:50;;;;;;;3.88;3.47;;;;;;;;;;5132716;27;20043;-33
2021/12/01 06:51:16;;;;;;;4.00;3.58;;;;;;;;;;5133141;27;20088;-31
2021/12/01 06:53:42;;;;;;;3.88;3.53;;;;;;;;;;5131591;27;20046;-30
2021/12/01 06:56:09;;;;;;;5.25;3.88;;;;;;;;;;5133094;27;20043;-32
2021/12/01 06:58:35;;;;;;;4.25;3.33;;;;;;;;;;5132941;27;20144;-31
2021/12/01 07:01:04;;;;;;;3.65;3.35;;;;;;;;;;5132711;27;20045;-31
2021/12/01 07:03:30;;;;;;;3.75;3.40;;;;;;;;;;5132492;27;20039;-34
2021/12/01 07:05:56;;;;;;;3.53;2.83;;;;;;;;;;5132574;27;20039;-32
2021/12/01 07:08:22;;;;;;;3.42;3.13;;;;;;;;;;5132939;27;20068;-33
2021/12/01 07:10:48;;;;;;;3.95;3.58;;;;;;;;;;5132487;27;20043;-32
2021/12/01 07:13:14;;;;;;;3.70;3.30;;;;;;;;;;5133015;27;20430;-29
2021/12/01 07:15:40;;;;;;;4.05;3.65;;;;;;;;;;5132243;27;20043;-32
2021/12/01 07:18:06;;;;;;;3.85;3.45;;;;;;;;;;5132945;27;20045;-32
2021/12/01 07:20:32;;;;;;;4.05;3.70;;;;;;;;;;5132378;27;20487;-32
2021/12/01 07:22:58;;;;;;;3.50;3.20;;;;;;;;;;5130969;27;20047;-33
2021/12/01 07:25:24;;;;;;;3.20;2.90;;;;;;;;;;5132223;27;20368;-31
2021/12/01 07:27:50;;;;;;;3.30;2.75;;;;;;;;;;5132241;27;20031;-33
2021/12/01 07:30:45;;;;;;;3.95;3.00;;;;;;;;;;5148315;27;20111;-31
2021/12/01 07:33:11;;;;;;;2.78;2.50;;;;;;;;;;5125894;27;20057;-30
2021/12/01 07:35:37;;;;;;;3.17;2.88;;;;;;;;;;5132360;27;20039;-31
2021/12/01 07:38:03;;;;;;;3.53;3.22;;;;;;;;;;5132645;27;20050;-29
2021/12/01 07:40:29;;;;;;;2.65;2.45;;;;;;;;;;5131107;27;20042;-31
2021/12/01 07:42:55;;;;;;;2.60;2.30;;;;;;;;;;5130533;27;20483;-30
2021/12/01 07:45:30;;;;;;;2.63;2.42;;;;;;;;;;5132742;27;20039;-29
2021/12/01 07:47:56;;;;;;;2.45;2.25;;;;;;;;;;5132750;27;20087;-29
2021/12/01 07:50:22;;;;;;;2.10;2.00;;;;;;;;;;5131484;27;20042;-30
2021/12/01 07:52:48;;;;;;;3.00;2.80;;;;;;;;;;5131450;27;20110;-28
2021/12/01 07:55:14;;;;;;;2.78;2.50;;;;;;;;;;5131971;27;20081;-29
2021/12/01 07:57:42;;;;;;;2.85;2.60;;;;;;;;;;5132129;27;20035;-30
2021/12/01 08:00:08;;;;;;;2.45;2.25;;;;;;;;;;5131944;27;20039;-29
2021/12/01 08:02:35;;;;;;;3.28;2.97;;;;;;;;;;5131746;27;20125;-29
2021/12/01 08:05:02;;;;;;;5.13;4.70;;;;;;;;;;5131729;27;20061;-29
2021/12/01 08:07:29;;;;;;;2.45;2.25;;;;;;;;;;5130029;27;20457;-30
2021/12/01 08:09:55;;;;;;;4.18;3.78;;;;;;;;;;5131874;28;20074;-28
2021/12/01 08:12:21;;;;;;;3.75;3.45;;;;;;;;;;5131631;28;20035;-31
2021/12/01 08:14:47;;;;;;;4.18;3.30;;;;;;;;;;5132457;28;20427;-29
2021/12/01 08:17:13;;;;;;;3.17;2.88;;;;;;;;;;5132300;28;20039;-30
2021/12/01 08:19:39;;;;;;;5.45;4.43;;;;;;;;;;5132195;28;20043;-28
2021/12/01 08:22:08;;;;;;;4.20;3.80;;;;;;;;;;5132192;28;20124;-29
2021/12/01 08:24:37;;;;;;;4.47;3.70;;;;;;;;;;5132467;27;20043;-31
2021/12/01 08:27:04;;;;;;;3.63;3.15;;;;;;;;;;5131945;28;20043;-32
2021/12/01 08:29:30;;;;;;;4.30;3.72;;;;;;;;;;5131436;28;20035;-28
2021/12/01 08:31:56;;;;;;;4.20;3.80;;;;;;;;;;5130959;28;20076;-29
2021/12/01 08:34:22;;;;;;;4.20;3.80;;;;;;;;;;5132533;28;20063;-31
2021/12/01 08:36:48;;;;;;;2.92;2.50;;;;;;;;;;5132508;28;20036;-29
2021/12/01 08:39:14;;;;;;;4.30;3.85;;;;;;;;;;5131217;28;20063;-29
2021/12/01 08:41:40;;;;;;;5.10;3.72;;;;;;;;;;5126713;28;20088;-29
2021/12/01 08:44:07;;;;;;;5.28;3.70;;;;;;;;;;5122515;28;20036;-29
2021/12/01 08:46:33;;;;;;;5.15;3.83;;;;;;;;;;5093310;28;20123;-30
2021/12/01 08:49:00;;;;;;;5.45;4.43;;;;;;;;;;5094370;28;20031;-30
2021/12/01 08:51:26;;;;;;;8.02;4.53;;;;;;;;;;5105006;28;20075;-30
2021/12/01 08:53:52;;;;;;;6.50;4.80;;;;;;;;;;5106238;28;20048;-31
2021/12/01 08:56:18;;;;;;;4.82;4.32;;;;;;;;;;5110420;28;20039;-31
2021/12/01 08:58:44;;;;;;;6.47;5.25;;;;;;;;;;5110964;28;20084;-30
2021/12/01 09:01:11;;;;;;;6.43;5.75;;;;;;;;;;5106388;28;20032;-31
2021/12/01 09:03:36;;;;;;;7.43;5.38;;;;;;;;;;5099072;28;20036;-30
2021/12/01 09:06:03;;;;;;;7.60;5.90;;;;;;;;;;5100075;27;20046;-31
2021/12/01 09:08:29;;;;;;;7.10;5.57;;;;;;;;;;5103728;28;20492;-30
2021/12/01 09:10:57;;;;;;;5.75;4.47;;;;;;;;;;5130180;27;20467;-30
2021/12/01 09:13:24;;;;;;;5.43;4.18;;;;;;;;;;5114656;28;20066;-32
2021/12/01 09:15:52;;;;;;;4.07;2.97;;;;;;;;;;5114469;28;20130;-29
2021/12/01 09:18:18;;;;;;;4.53;2.60;;;;;;;;;;5114624;28;20082;-30
2021/12/01 09:20:44;;;;;;;6.85;2.78;;;;;;;;;;5113539;28;20036;-32
2021/12/01 09:23:10;;;;;;;7.95;2.92;;;;;;;;;;5114199;28;20737;-29
2021/12/01 09:25:36;;;;;;;4.20;2.20;;;;;;;;;;5109156;28;20594;-31
2021/12/01 09:28:02;;;;;;;6.88;2.38;;;;;;;;;;5112903;28;20531;-29
2021/12/01 09:30:29;;;;;;;5.53;2.60;;;;;;;;;;5111147;28;20068;-30
2021/12/01 09:32:55;;;;;;;12.80;3.03;;;;;;;;;;5105800;28;20047;-30
2021/12/01 09:35:21;;;;;;;7.78;3.33;;;;;;;;;;5114670;28;20047;-32
2021/12/01 09:37:47;;;;;;;12.45;4.03;;;;;;;;;;5115026;28;20046;-30
2021/12/01 09:40:16;;;;;;;6.10;2.22;;;;;;;;;;5114590;27;20419;-30
2021/12/01 09:42:43;;;;;;;7.45;2.60;;;;;;;;;;5114585;28;20047;-29
2021/12/01 09:45:10;;;;;;;7.63;3.00;;;;;;;;;;5113304;28;20100;-30
2021/12/01 09:47:36;;;;;;;23.83;8.45;;;;;;;;;;5114205;28;20039;-30
2021/12/01 09:50:03;;;;;;;15.70;6.03;;;;;;;;;;5114189;28;20119;-29
2021/12/01 09:52:29;;;;;;;12.07;5.40;;;;;;;;;;5114515;28;20040;-30
2021/12/01 09:54:55;;;;;;;5.60;2.55;;;;;;;;;;5109289;28;20075;-29
2021/12/01 09:57:21;;;;;;;7.55;2.45;;;;;;;;;;5096417;28;20032;-31
2021/12/01 09:59:47;;;;;;;8.95;2.40;;;;;;;;;;5100671;27;20039;-31
2021/12/01 10:02:14;;;;;;;9.43;2.97;;;;;;;;;;5102991;27;20039;-30
2021/12/01 10:04:40;;;;;;;6.85;2.92;;;;;;;;;;5104572;27;20039;-30
2021/12/01 10:07:17;;;;;;;10.52;3.88;;;;;;;;;;5107013;27;20038;-32
2021/12/01 10:09:45;;;;;;;8.80;2.30;;;;;;;;;;5103232;27;20480;-31
2021/12/01 10:12:12;;;;;;;11.27;3.47;;;;;;;;;;5099253;27;20063;-30
2021/12/01 10:14:38;;;;;;;7.88;1.95;;;;;;;;;;5099140;27;20042;-33
2021/12/01 10:17:05;;;;;;;7.05;3.30;;;;;;;;;;5116587;27;20039;-34
2021/12/01 10:19:31;;;;;;;4.60;2.95;;;;;;;;;;5108586;27;20511;-34
2021/12/01 10:21:59;;;;;;;5.82;2.60;;;;;;;;;;5111451;28;20400;-34
2021/12/01 10:24:26;;;;;;;8.35;2.38;;;;;;;;;;5111366;28;20088;-34
2021/12/01 10:26:54;;;;;;;8.02;3.60;;;;;;;;;;5111660;28;20482;-35
2021/12/01 10:29:22;;;;;;;6.18;2.78;;;;;;;;;;5097902;28;20394;-36
2021/12/01 10:31:51;;;;;;;5.25;1.95;;;;;;;;;;5111348;27;20035;-35
2021/12/01 10:34:23;;;;;;;9.48;4.55;;;;;;;;;;5112192;27;20043;-35
2021/12/01 10:37:08;;;;;;;7.72;2.85;;;;;;;;;;5099493;28;20035;-34
2021/12/01 10:39:34;;;;;;;5.65;1.45;;;;;;;;;;5098121;28;20036;-36
2021/12/01 10:42:04;;;;;;;11.85;3.25;;;;;;;;;;5103439;27;20427;-34
2021/12/01 10:44:30;;;;;;;11.77;3.63;;;;;;;;;;5098097;27;20191;-37
2021/12/01 10:46:57;;;;;;;6.65;2.33;;;;;;;;;;5113794;27;20061;-34
2021/12/01 10:49:33;;;;;;;11.07;3.13;;;;;;;;;;5099221;28;20039;-35
2021/12/01 10:51:59;;;;;;;6.47;2.30;;;;;;;;;;5113918;27;20503;-34
2021/12/01 10:54:26;;;;;;;7.35;3.08;;;;;;;;;;5108838;27;20075;-34
2021/12/01 10:57:10;;;;;;;8.48;1.92;;;;;;;;;;5131774;27;20039;-36
2021/12/01 10:59:46;;;;;;;6.15;1.83;;;;;;;;;;5133550;27;20043;-30
2021/12/01 11:02:13;;;;;;;13.43;2.35;;;;;;;;;;5134435;27;20039;-30
2021/12/01 11:04:49;;;;;;;4.38;1.92;;;;;;;;;;5134221;27;20070;-29
2021/12/01 11:07:28;;;;;;;5.05;1.88;;;;;;;;;;5131840;27;20063;-34
2021/12/01 11:10:14;;;;;;;6.28;1.90;;;;;;;;;;5092889;28;20036;-30
2021/12/01 11:12:40;;;;;;;14.35;2.03;;;;;;;;;;5092975;28;20489;-30
2021/12/01 11:15:17;;;;;;;11.50;1.83;;;;;;;;;;5092584;28;20043;-29
2021/12/01 11:17:43;;;;;;;9.07;1.88;;;;;;;;;;5092789;28;20097;-31
2021/12/01 11:20:10;;;;;;;4.70;1.67;;;;;;;;;;5092561;28;20044;-39
2021/12/01 11:22:36;;;;;;;12.05;3.38;;;;;;;;;;5092028;28;20484;-29
2021/12/01 11:25:19;;;;;;;9.27;2.72;;;;;;;;;;5093165;28;20050;-36
2021/12/01 11:27:46;;;;;;;7.95;1.83;;;;;;;;;;5093231;28;20046;-33
2021/12/01 11:30:12;;;;;;;8.10;1.88;;;;;;;;;;5093326;28;20512;-34
2021/12/01 11:32:39;;;;;;;7.53;1.90;;;;;;;;;;5092768;28;20040;-30
2021/12/01 11:35:06;;;;;;;10.85;2.60;;;;;;;;;;5091650;28;20062;-31
2021/12/01 11:37:32;;;;;;;13.15;2.75;;;;;;;;;;5093316;28;20442;-30
2021/12/01 11:39:58;;;;;;;11.63;2.38;;;;;;;;;;5091424;28;20044;-30
2021/12/01 11:42:25;;;;;;;9.55;1.85;;;;;;;;;;5093067;28;20093;-30
2021/12/01 11:44:52;;;;;;;8.70;2.55;;;;;;;;;;5093351;28;20040;-31
2021/12/01 11:47:18;;;;;;;17.58;3.08;;;;;;;;;;5093170;28;20032;-30
2021/12/01 11:49:44;;;;;;;13.05;2.35;;;;;;;;;;5092973;28;20085;-29
2021/12/01 11:52:11;;;;;;;10.98;2.75;;;;;;;;;;5092771;28;20048;-30
2021/12/01 11:54:44;;;;;;;11.25;2.47;;;;;;;;;;5093290;28;20086;-30
2021/12/01 11:57:10;;;;;;;7.38;2.55;;;;;;;;;;5092946;28;20040;-30
2021/12/01 11:59:38;;;;;;;10.68;2.47;;;;;;;;;;5093148;28;20393;-28
2021/12/01 12:02:07;;;;;;;7.85;2.28;;;;;;;;;;5092567;28;20044;-31
2021/12/01 12:04:49;;;;;;;11.82;2.38;;;;;;;;;;5093102;28;20094;-31
2021/12/01 12:07:22;;;;;;;13.48;3.30;;;;;;;;;;5092473;28;20051;-30
2021/12/01 12:10:07;;;;;;;13.60;2.83;;;;;;;;;;5092366;28;20081;-30
2021/12/01 12:13:00;;;;;;;13.48;3.55;;;;;;;;;;5091577;28;20067;-31
2021/12/01 12:15:38;;;;;;;16.33;2.97;;;;;;;;;;5092385;28;20389;-30
2021/12/01 12:18:09;;;;;;;15.40;2.92;;;;;;;;;;5091052;28;20508;-29
2021/12/01 12:20:42;;;;;;;16.15;3.08;;;;;;;;;;5108092;28;20036;-31
2021/12/01 12:23:10;;;;;;;11.98;2.78;;;;;;;;;;5092448;28;20044;-30
2021/12/01 12:25:36;;;;;;;11.10;3.13;;;;;;;;;;5093301;28;20040;-31
2021/12/01 12:28:19;;;;;;;13.43;2.50;;;;;;;;;;5092968;28;20389;-30
2021/12/01 12:30:45;;;;;;;16.23;4.22;;;;;;;;;;5092296;28;20420;-30
2021/12/01 12:33:14;;;;;;;11.50;2.90;;;;;;;;;;5092637;28;20078;-30
2021/12/01 12:35:44;;;;;;;15.20;5.35;;;;;;;;;;5092439;28;20439;-30
2021/12/01 12:38:11;;;;;;;10.50;3.47;;;;;;;;;;5095095;28;20047;-30
2021/12/01 12:40:38;;;;;;;14.55;3.65;;;;;;;;;;5097037;28;20384;-30
2021/12/01 12:43:10;;;;;;;9.90;3.70;;;;;;;;;;5097102;28;20164;-30
2021/12/01 12:45:38;;;;;;;8.05;2.25;;;;;;;;;;5096449;28;20036;-30
2021/12/01 12:48:23;;;;;;;14.23;2.95;;;;;;;;;;5096781;28;20040;-29
2021/12/01 12:51:08;;;;;;;7.88;2.85;;;;;;;;;;5096584;28;20460;-30
2021/12/01 12:53:34;;;;;;;10.55;2.80;;;;;;;;;;5096767;28;20282;-30
2021/12/01 12:56:20;;;;;;;15.25;2.95;;;;;;;;;;5096731;28;20408;-29
2021/12/01 12:58:47;;;;;;;11.35;2.67;;;;;;;;;;5096261;28;20301;-29
2021/12/01 13:01:23;;;;;;;14.38;2.95;;;;;;;;;;5096044;28;20047;-30
2021/12/01 13:03:51;;;;;;;11.82;2.40;;;;;;;;;;5096496;28;20048;-29
2021/12/01 13:06:27;;;;;;;16.13;3.13;;;;;;;;;;5096315;28;20044;-29
2021/12/01 13:08:54;;;;;;;9.77;2.35;;;;;;;;;;5096342;28;20043;-30
2021/12/01 13:11:23;;;;;;;11.43;2.28;;;;;;;;;;5096244;28;20132;-30
2021/12/01 13:13:50;;;;;;;9.88;2.10;;;;;;;;;;5096322;28;20075;-30
2021/12/01 13:16:18;;;;;;;14.43;2.83;;;;;;;;;;5095907;28;20096;-30
2021/12/01 13:18:45;;;;;;;7.57;2.63;;;;;;;;;;5096024;28;20043;-30
2021/12/01 13:21:13;;;;;;;13.65;2.38;;;;;;;;;;5096292;28;20330;-29
2021/12/01 13:23:57;;;;;;;5.20;2.08;;;;;;;;;;5095741;28;20125;-30
2021/12/01 13:26:26;;;;;;;12.40;2.13;;;;;;;;;;5096128;28;20040;-29
2021/12/01 13:28:54;;;;;;;14.23;2.58;;;;;;;;;;5095524;28;20046;-31
2021/12/01 13:31:30;;;;;;;11.65;2.72;;;;;;;;;;5095937;28;20373;-29
2021/12/01 13:34:01;;;;;;;14.35;2.60;;;;;;;;;;5096146;28;20036;-29
2021/12/01 13:36:38;;;;;;;9.68;1.90;;;;;;;;;;5095606;28;20094;-30
2021/12/01 13:39:10;;;;;;;12.20;2.53;;;;;;;;;;5095544;28;20044;-29
2021/12/01 13:41:38;;;;;;;10.50;2.17;;;;;;;;;;5095740;28;20043;-31
2021/12/01 13:44:06;;;;;;;4.32;1.63;;;;;;;;;;5096250;28;20036;-31
2021/12/01 13:46:32;;;;;;;10.48;1.95;;;;;;;;;;5095330;28;20036;-29
2021/12/01 13:48:58;;;;;;;5.53;1.45;;;;;;;;;;5094573;28;20074;-30
2021/12/01 13:51:24;;;;;;;11.05;2.38;;;;;;;;;;5095436;28;20123;-30
2021/12/01 13:53:51;;;;;;;7.93;1.50;;;;;;;;;;5095515;28;20105;-30
2021/12/01 13:56:19;;;;;;;10.45;1.67;;;;;;;;;;5095635;28;20131;-30
2021/12/01 13:58:45;;;;;;;7.30;1.67;;;;;;;;;;5095269;28;20076;-30
2021/12/01 14:01:16;;;;;;;9.60;2.20;;;;;;;;;;5095534;28;20076;-29
2021/12/01 14:03:53;;;;;;;9.30;1.65;;;;;;;;;;5095460;28;20036;-30
2021/12/01 14:06:20;;;;;;;9.25;2.00;;;;;;;;;;5095313;28;20036;-30
2021/12/01 14:08:50;;;;;;;5.05;1.52;;;;;;;;;;5094921;28;20059;-31
2021/12/01 14:11:24;;;;;;;7.85;1.13;;;;;;;;;;5093831;28;20043;-30
2021/12/01 14:13:51;;;;;;;6.72;1.60;;;;;;;;;;5094453;28;20051;-29
2021/12/01 14:16:19;;;;;;;8.85;1.75;;;;;;;;;;5094642;28;20048;-30
2021/12/01 14:18:45;;;;;;;7.53;1.20;;;;;;;;;;5095024;28;20044;-30
2021/12/01 14:21:12;;;;;;;7.45;1.20;;;;;;;;;;5110268;28;20123;-32
2021/12/01 14:23:39;;;;;;;10.95;1.88;;;;;;;;;;5094267;28;20050;-30
2021/12/01 14:26:05;;;;;;;7.45;1.98;;;;;;;;;;5094593;28;20485;-29
2021/12/01 14:28:32;;;;;;;7.10;1.95;;;;;;;;;;5094476;28;20394;-30
2021/12/01 14:31:00;;;;;;;7.35;1.50;;;;;;;;;;5094635;28;20497;-31
2021/12/01 14:33:27;;;;;;;9.27;1.52;;;;;;;;;;5094016;28;20044;-30
2021/12/01 14:36:07;;;;;;;5.85;1.95;;;;;;;;;;5094485;28;20044;-29
2021/12/01 14:38:34;;;;;;;9.50;1.77;;;;;;;;;;5093779;28;20048;-30
2021/12/01 14:41:01;;;;;;;6.65;1.42;;;;;;;;;;5093127;28;20065;-31
2021/12/01 14:43:29;;;;;;;10.77;1.98;;;;;;;;;;5092314;28;20043;-31
2021/12/01 14:45:55;;;;;;;7.97;2.60;;;;;;;;;;5093790;28;20508;-30
2021/12/01 14:48:22;;;;;;;6.72;2.00;;;;;;;;;;5094612;28;20043;-29
2021/12/01 14:50:49;;;;;;;8.88;1.63;;;;;;;;;;5093834;28;20128;-30
2021/12/01 14:53:18;;;;;;;4.95;1.42;;;;;;;;;;5109483;28;20044;-29
2021/12/01 14:55:45;;;;;;;7.68;1.70;;;;;;;;;;5094201;28;20051;-30